TAF Text Data
IDs:
Format:
Raw Decoded Include METAR

Data at: 0319 UTC 29 May 2022

KANB 282328Z 2900/2924 VRB03KT P6SM FEW250